Time;durP1;ratioP1;P1;durP2;ratioP2;P2;SDS_P1;SDS_P2;PMS_P1;PMS_P2;Temp;Humidity;BMP_temperature;BMP_pressure;BME280_temperature;BME280_humidity;BME280_pressure;Samples;Min_cycle;Max_cycle;Signal;HPM_P1;HPM_P2
2024/02/22 00:01:10;;;;;;;6.63;4.90;;;10.10;99.90;;;;;;4967232;28;20039;-75
2024/02/22 00:03:37;;;;;;;7.45;5.15;;;10.10;99.90;;;;;;4980106;28;20033;-75
2024/02/22 00:06:04;;;;;;;6.82;5.30;;;10.10;99.90;;;;;;4974561;28;20487;-74
2024/02/22 00:08:29;;;;;;;7.80;5.68;;;10.10;99.90;;;;;;4972294;28;20042;-74
2024/02/22 00:10:57;;;;;;;7.15;5.53;;;10.10;99.90;;;;;;4981015;28;20046;-74
2024/02/22 00:13:23;;;;;;;9.18;6.75;;;10.10;99.90;;;;;;4961408;28;20377;-74
2024/02/22 00:15:49;;;;;;;8.07;5.75;;;10.10;99.90;;;;;;4977431;28;20039;-73
2024/02/22 00:18:15;;;;;;;11.65;6.50;;;10.20;99.90;;;;;;4968281;28;20494;-74
2024/02/22 00:20:41;;;;;;;8.43;6.05;;;10.20;99.90;;;;;;4999993;28;20026;-74
2024/02/22 00:23:07;;;;;;;7.22;5.78;;;10.20;99.90;;;;;;4994875;28;20061;-75
2024/02/22 00:25:33;;;;;;;8.68;5.93;;;10.20;99.90;;;;;;4991653;28;20034;-74
2024/02/22 00:27:58;;;;;;;8.10;6.28;;;10.20;99.90;;;;;;4999774;28;20373;-75
2024/02/22 00:30:25;;;;;;;8.60;6.57;;;10.20;99.90;;;;;;5004524;28;20522;-74
2024/02/22 00:32:51;;;;;;;9.30;6.10;;;10.20;99.90;;;;;;4998319;28;20462;-74
2024/02/22 00:35:18;;;;;;;8.77;6.88;;;10.30;99.90;;;;;;4998718;28;20057;-74
2024/02/22 00:37:43;;;;;;;7.40;5.88;;;10.30;99.90;;;;;;5000331;28;20493;-74
2024/02/22 00:40:13;;;;;;;7.57;5.53;;;10.30;99.90;;;;;;4982771;28;20030;-74
2024/02/22 00:42:42;;;;;;;7.37;5.53;;;10.20;99.90;;;;;;5004002;28;20112;-74
2024/02/22 00:45:10;;;;;;;7.97;6.30;;;10.30;99.90;;;;;;4993027;28;20038;-75
2024/02/22 00:47:36;;;;;;;8.75;7.00;;;10.30;99.90;;;;;;4999846;28;20408;-75
2024/02/22 00:50:02;;;;;;;9.65;6.43;;;10.30;99.90;;;;;;4994915;28;20026;-75
2024/02/22 00:52:29;;;;;;;9.10;6.57;;;10.30;99.90;;;;;;5001288;28;20025;-75
2024/02/22 00:54:55;;;;;;;8.85;6.55;;;10.30;99.90;;;;;;5002644;28;20029;-76
2024/02/22 00:57:20;;;;;;;8.73;6.43;;;10.40;99.90;;;;;;4990486;28;20022;-75
2024/02/22 00:59:46;;;;;;;9.90;7.05;;;10.30;99.90;;;;;;5004212;28;20080;-75
2024/02/22 01:02:12;;;;;;;7.85;6.38;;;10.40;99.90;;;;;;4991263;28;20424;-75
2024/02/22 01:04:37;;;;;;;8.50;6.53;;;10.40;99.90;;;;;;4999632;28;20117;-75
2024/02/22 01:07:03;;;;;;;8.98;6.93;;;10.40;99.90;;;;;;4977443;28;20023;-75
2024/02/22 01:09:29;;;;;;;8.77;6.93;;;10.40;99.90;;;;;;5000720;28;20049;-74
2024/02/22 01:11:55;;;;;;;7.60;5.63;;;10.40;99.90;;;;;;5003140;28;20514;-75
2024/02/22 01:14:21;;;;;;;9.43;7.32;;;10.40;99.90;;;;;;4995155;28;20026;-75
2024/02/22 01:16:50;;;;;;;9.02;6.68;;;10.40;99.90;;;;;;4979478;28;20105;-75
2024/02/22 01:19:17;;;;;;;13.10;8.65;;;10.40;99.90;;;;;;4974066;28;20069;-75
2024/02/22 01:21:43;;;;;;;9.35;7.32;;;10.40;99.90;;;;;;4978232;28;20019;-74
2024/02/22 01:24:09;;;;;;;9.10;7.00;;;10.50;99.90;;;;;;4982580;28;20512;-75
2024/02/22 01:26:35;;;;;;;9.80;6.53;;;10.40;99.90;;;;;;4978520;28;20031;-75
2024/02/22 01:29:03;;;;;;;11.00;7.25;;;10.40;99.90;;;;;;4974880;28;20563;-74
2024/02/22 01:31:30;;;;;;;10.32;7.72;;;10.50;99.90;;;;;;4966071;28;20025;-75
2024/02/22 01:33:55;;;;;;;9.77;6.88;;;10.50;99.90;;;;;;4986790;28;20026;-74
2024/02/22 01:36:21;;;;;;;9.27;6.97;;;10.50;99.90;;;;;;4970991;28;20041;-75
2024/02/22 01:38:47;;;;;;;9.05;7.20;;;10.50;99.90;;;;;;4980172;28;20030;-73
2024/02/22 01:41:13;;;;;;;8.50;6.50;;;10.50;99.90;;;;;;4957186;28;20388;-73
2024/02/22 01:43:39;;;;;;;9.98;7.28;;;10.50;99.90;;;;;;4979198;28;20026;-75
2024/02/22 01:46:04;;;;;;;9.05;6.90;;;10.50;99.90;;;;;;4955567;28;20034;-75
2024/02/22 01:48:32;;;;;;;9.05;6.50;;;10.50;99.90;;;;;;4965408;28;20019;-75
2024/02/22 01:50:59;;;;;;;9.80;7.18;;;10.50;99.90;;;;;;4978745;28;20019;-75
2024/02/22 01:53:27;;;;;;;8.73;6.43;;;10.60;99.90;;;;;;4974681;28;20564;-75
2024/02/22 01:55:57;;;;;;;9.65;6.55;;;10.50;99.90;;;;;;4980129;28;20038;-74
2024/02/22 01:58:31;;;;;;;9.50;6.72;;;10.60;99.90;;;;;;4982735;28;20127;-75
2024/02/22 02:00:58;;;;;;;8.32;5.53;;;10.60;99.90;;;;;;4976403;28;20026;-75
2024/02/22 02:03:26;;;;;;;8.52;6.10;;;10.60;99.90;;;;;;4974688;28;20102;-75
2024/02/22 02:05:53;;;;;;;7.13;5.32;;;10.60;99.90;;;;;;4967292;28;20034;-75
2024/02/22 02:08:19;;;;;;;14.52;7.20;;;10.60;99.90;;;;;;4981114;28;20380;-75
2024/02/22 02:10:46;;;;;;;9.75;6.80;;;10.60;99.90;;;;;;4973586;28;20538;-74
2024/02/22 02:13:12;;;;;;;9.88;5.72;;;10.60;99.90;;;;;;4977714;28;20019;-75
2024/02/22 02:15:38;;;;;;;7.57;5.22;;;10.60;99.90;;;;;;4982255;28;20085;-75
2024/02/22 02:18:04;;;;;;;8.82;6.40;;;10.70;99.90;;;;;;4977657;28;20060;-75
2024/02/22 02:20:36;;;;;;;7.90;6.00;;;10.70;99.90;;;;;;4973986;28;20023;-74
2024/02/22 02:23:25;;;;;;;9.00;6.60;;;10.70;99.90;;;;;;4980334;28;20377;-74
2024/02/22 02:25:51;;;;;;;10.15;6.38;;;10.70;99.90;;;;;;4981526;28;20054;-74
2024/02/22 02:28:17;;;;;;;9.00;6.40;;;10.70;99.90;;;;;;4977429;28;20097;-75
2024/02/22 02:30:43;;;;;;;9.65;6.57;;;10.70;99.90;;;;;;4973546;28;20030;-75
2024/02/22 02:33:09;;;;;;;10.48;6.78;;;10.70;99.90;;;;;;4980937;28;20022;-74
2024/02/22 02:35:37;;;;;;;11.15;7.47;;;10.80;99.90;;;;;;4985431;28;20061;-74
2024/02/22 02:38:10;;;;;;;10.35;7.63;;;10.80;99.90;;;;;;4977254;28;20065;-74
2024/02/22 02:40:36;;;;;;;11.18;7.47;;;10.80;99.90;;;;;;4975376;28;20030;-74
2024/02/22 02:43:02;;;;;;;12.52;8.27;;;10.80;99.90;;;;;;4981724;28;20140;-74
2024/02/22 02:45:28;;;;;;;12.20;7.68;;;10.80;99.90;;;;;;4971432;28;20029;-75
2024/02/22 02:47:54;;;;;;;12.60;8.00;;;10.80;99.90;;;;;;4980154;28;20042;-74
2024/02/22 02:50:20;;;;;;;17.13;8.23;;;10.80;99.90;;;;;;4973487;28;20495;-75
2024/02/22 02:52:45;;;;;;;13.68;8.80;;;10.90;99.90;;;;;;4975975;28;20501;-75
2024/02/22 02:55:13;;;;;;;15.85;8.77;;;10.90;99.90;;;;;;4981001;28;20535;-75
2024/02/22 02:57:42;;;;;;;15.50;9.63;;;10.90;99.90;;;;;;4976753;28;20113;-74
2024/02/22 03:00:13;;;;;;;14.57;8.82;;;10.90;99.90;;;;;;4955762;28;20034;-74
2024/02/22 03:02:42;;;;;;;;;;;10.90;99.90;;;;;;4980444;28;20053;-74
2024/02/22 03:05:08;;;;;;;13.88;9.63;;;10.90;99.90;;;;;;4984082;28;19916;-73
2024/02/22 03:07:35;;;;;;;14.32;9.75;;;10.90;99.90;;;;;;4974482;28;20027;-74
2024/02/22 03:10:01;;;;;;;14.45;9.50;;;11.00;99.90;;;;;;4974395;28;20117;-74
2024/02/22 03:12:27;;;;;;;15.38;9.75;;;11.00;99.90;;;;;;4981782;28;20127;-74
2024/02/22 03:14:53;;;;;;;18.15;11.13;;;11.00;99.90;;;;;;4959669;28;20116;-74
2024/02/22 03:17:23;;;;;;;18.98;11.15;;;11.00;99.90;;;;;;4973586;28;20121;-74
2024/02/22 03:19:49;;;;;;;16.88;10.43;;;11.00;99.90;;;;;;4977541;28;20027;-73
2024/02/22 03:22:15;;;;;;;14.13;9.18;;;11.00;99.90;;;;;;4981013;28;20034;-74
2024/02/22 03:24:40;;;;;;;18.48;11.38;;;11.10;99.90;;;;;;4974757;28;20031;-74
2024/02/22 03:27:10;;;;;;;16.60;10.82;;;11.10;99.90;;;;;;4956428;28;20093;-74
2024/02/22 03:29:37;;;;;;;20.33;12.25;;;11.10;99.90;;;;;;4980528;28;20109;-73
2024/02/22 03:32:03;;;;;;;20.08;11.65;;;11.10;99.90;;;;;;4979707;28;20026;-73
2024/02/22 03:34:29;;;;;;;18.15;11.18;;;11.10;99.90;;;;;;4959780;28;20080;-73
2024/02/22 03:36:56;;;;;;;17.73;10.52;;;11.10;99.90;;;;;;4961709;28;20023;-73
2024/02/22 03:39:22;;;;;;;20.88;11.77;;;11.10;99.90;;;;;;4969337;28;20011;-74
2024/02/22 03:41:47;;;;;;;23.02;12.10;;;11.10;99.90;;;;;;4978530;28;20023;-74
2024/02/22 03:44:15;;;;;;;20.98;11.75;;;11.10;99.90;;;;;;4980518;28;20608;-76
2024/02/22 03:46:47;;;;;;;23.88;12.70;;;11.10;99.90;;;;;;4963501;28;20123;-73
2024/02/22 03:49:13;;;;;;;18.98;11.38;;;11.10;99.90;;;;;;4976517;28;20026;-73
2024/02/22 03:51:39;;;;;;;16.50;11.07;;;11.10;99.90;;;;;;4972130;28;20416;-74
2024/02/22 03:54:05;;;;;;;20.55;11.68;;;11.10;99.90;;;;;;4978649;28;20034;-73
2024/02/22 03:56:35;;;;;;;23.75;11.98;;;11.10;99.90;;;;;;4950158;28;20033;-74
2024/02/22 03:59:02;;;;;;;19.48;10.88;;;11.10;99.90;;;;;;4959561;28;20875;-74
2024/02/22 04:01:28;;;;;;;20.90;11.20;;;11.10;99.90;;;;;;4974910;28;20035;-73
2024/02/22 04:03:58;;;;;;;23.88;12.55;;;11.10;99.90;;;;;;4963730;28;20109;-74
2024/02/22 04:06:24;;;;;;;22.67;13.60;;;11.10;99.90;;;;;;4966684;28;20026;-74
2024/02/22 04:08:51;;;;;;;24.13;13.38;;;11.10;99.90;;;;;;4978417;28;20113;-75
2024/02/22 04:11:17;;;;;;;26.08;12.50;;;11.10;99.90;;;;;;4979796;28;20038;-74
2024/02/22 04:13:43;;;;;;;27.67;12.55;;;11.10;99.90;;;;;;4984652;28;20052;-73
2024/02/22 04:16:08;;;;;;;21.70;11.50;;;11.10;99.90;;;;;;4988866;28;20111;-74
2024/02/22 04:18:36;;;;;;;25.58;12.32;;;11.10;99.90;;;;;;4995521;28;20189;-76
2024/02/22 04:21:01;;;;;;;20.73;11.40;;;11.10;99.90;;;;;;4985547;28;20018;-74
2024/02/22 04:23:27;;;;;;;20.10;11.32;;;11.10;99.90;;;;;;5001347;28;20033;-75
2024/02/22 04:25:54;;;;;;;26.20;10.80;;;11.10;99.90;;;;;;4994992;28;20092;-75
2024/02/22 04:28:20;;;;;;;21.20;10.95;;;11.10;99.90;;;;;;5000644;28;20981;-75
2024/02/22 04:30:47;;;;;;;19.00;10.50;;;11.10;99.90;;;;;;5003137;28;20109;-75
2024/02/22 04:33:13;;;;;;;16.42;10.32;;;11.10;99.90;;;;;;4997687;28;20010;-75
2024/02/22 04:35:44;;;;;;;25.20;11.85;;;11.00;99.90;;;;;;4996042;28;20034;-74
2024/02/22 04:38:11;;;;;;;16.45;10.00;;;11.10;99.90;;;;;;4996428;28;20025;-74
2024/02/22 04:40:37;;;;;;;17.35;10.52;;;11.10;99.90;;;;;;4996435;28;20046;-74
2024/02/22 04:43:04;;;;;;;27.27;11.45;;;11.10;99.90;;;;;;5003600;28;20484;-73
2024/02/22 04:45:30;;;;;;;23.38;11.18;;;11.10;99.90;;;;;;4975473;28;20030;-74
2024/02/22 04:47:57;;;;;;;28.92;12.52;;;11.10;99.90;;;;;;5002572;28;20061;-74
2024/02/22 04:50:22;;;;;;;23.02;10.25;;;11.00;99.90;;;;;;4988584;28;20034;-74
2024/02/22 04:52:48;;;;;;;26.13;10.68;;;11.00;99.90;;;;;;5000491;28;20109;-74
2024/02/22 04:55:14;;;;;;;27.58;11.32;;;11.00;99.90;;;;;;4994924;28;20555;-74
2024/02/22 04:57:40;;;;;;;22.13;9.77;;;11.00;99.90;;;;;;4983044;28;20034;-73
2024/02/22 05:00:08;;;;;;;31.00;10.10;;;11.00;99.90;;;;;;5002712;28;20041;-73
2024/02/22 05:02:34;;;;;;;24.75;11.32;;;11.00;99.90;;;;;;4996892;28;20153;-74
2024/02/22 05:05:00;;;;;;;27.50;9.65;;;11.00;99.90;;;;;;4977585;28;20129;-74
2024/02/22 05:07:25;;;;;;;19.35;8.88;;;11.00;99.90;;;;;;5005945;28;20030;-74
2024/02/22 05:09:51;;;;;;;18.90;9.43;;;11.00;99.90;;;;;;5004659;28;20084;-74
2024/02/22 05:12:17;;;;;;;22.38;9.38;;;11.00;99.90;;;;;;4995150;28;20396;-74
2024/02/22 05:14:46;;;;;;;27.42;10.75;;;10.90;99.90;;;;;;4981446;28;20034;-73
2024/02/22 05:17:12;;;;;;;24.73;9.85;;;11.00;99.90;;;;;;5002516;28;20029;-74
2024/02/22 05:19:39;;;;;;;24.63;10.80;;;10.90;99.90;;;;;;4979116;28;20432;-74
2024/02/22 05:22:05;;;;;;;29.83;10.52;;;10.90;99.90;;;;;;4995034;28;20559;-74
2024/02/22 05:24:32;;;;;;;17.92;9.18;;;10.90;99.90;;;;;;4977358;28;20116;-75
2024/02/22 05:26:58;;;;;;;23.00;9.75;;;10.90;99.90;;;;;;4979137;28;20217;-75
2024/02/22 05:29:24;;;;;;;26.13;9.30;;;10.80;99.90;;;;;;5002069;28;20014;-74
2024/02/22 05:31:52;;;;;;;24.17;9.45;;;10.80;99.90;;;;;;4999199;28;20443;-74
2024/02/22 05:34:18;;;;;;;25.42;8.25;;;10.80;99.90;;;;;;4992387;28;20011;-74
2024/02/22 05:36:44;;;;;;;27.13;8.80;;;10.80;99.90;;;;;;4989099;28;20030;-73
2024/02/22 05:39:11;;;;;;;20.83;7.68;;;10.70;99.90;;;;;;5006580;28;20025;-74
2024/02/22 05:41:37;;;;;;;23.98;7.93;;;10.70;99.90;;;;;;4981695;28;20505;-74
2024/02/22 05:44:03;;;;;;;24.83;8.20;;;10.70;99.90;;;;;;4995687;28;20022;-74
2024/02/22 05:46:29;;;;;;;23.08;7.10;;;10.70;99.90;;;;;;4975238;28;20084;-74
2024/02/22 05:48:55;;;;;;;29.25;7.75;;;10.70;99.90;;;;;;5001078;28;20518;-74
2024/02/22 05:51:21;;;;;;;18.90;7.72;;;10.70;99.90;;;;;;5000939;28;20030;-74
2024/02/22 05:53:48;;;;;;;24.30;8.35;;;10.70;99.90;;;;;;4993992;28;20077;-73
2024/02/22 05:56:14;;;;;;;20.38;8.13;;;10.70;99.90;;;;;;4996862;28;20030;-74
2024/02/22 05:58:40;;;;;;;26.60;9.77;;;10.70;99.90;;;;;;4991914;28;20434;-74
2024/02/22 06:01:06;;;;;;;26.50;10.07;;;10.70;99.90;;;;;;4980856;28;20049;-74
2024/02/22 06:03:32;;;;;;;30.45;11.45;;;10.60;99.90;;;;;;5002327;28;20484;-74
2024/02/22 06:05:58;;;;;;;29.00;11.90;;;10.60;99.90;;;;;;4995384;28;20029;-74
2024/02/22 06:08:24;;;;;;;27.30;11.27;;;10.60;99.90;;;;;;4994683;28;20031;-74
2024/02/22 06:10:52;;;;;;;24.30;11.80;;;10.60;99.90;;;;;;4983951;28;20038;-74
2024/02/22 06:13:18;;;;;;;31.33;13.00;;;10.60;99.90;;;;;;4978589;28;20030;-74
2024/02/22 06:15:43;;;;;;;28.13;12.95;;;10.70;99.90;;;;;;4991950;28;20321;-74
2024/02/22 06:18:09;;;;;;;24.42;13.00;;;10.60;99.90;;;;;;4998064;28;20028;-74
2024/02/22 06:20:35;;;;;;;21.13;11.52;;;10.60;99.90;;;;;;4976299;28;20035;-74
2024/02/22 06:23:03;;;;;;;27.13;11.98;;;10.60;99.90;;;;;;5000182;28;20037;-74
2024/02/22 06:25:29;;;;;;;24.17;12.13;;;10.60;99.90;;;;;;5001439;28;20026;-74
2024/02/22 06:27:55;;;;;;;24.88;11.52;;;10.60;99.90;;;;;;4974327;28;20412;-73
2024/02/22 06:30:21;;;;;;;30.80;12.38;;;10.60;99.90;;;;;;4999306;28;20109;-74
2024/02/22 06:32:50;;;;;;;25.00;12.40;;;10.60;99.90;;;;;;4993288;28;20167;-74
2024/02/22 06:35:21;;;;;;;23.70;11.60;;;10.60;99.90;;;;;;4979049;28;20041;-74
2024/02/22 06:37:47;;;;;;;28.35;11.65;;;10.60;99.90;;;;;;4998460;28;20022;-73
2024/02/22 06:40:14;;;;;;;25.27;11.55;;;10.60;99.90;;;;;;4998075;28;20050;-74
2024/02/22 06:42:41;;;;;;;24.15;10.48;;;10.60;99.90;;;;;;5003327;28;20430;-74
2024/02/22 06:45:08;;;;;;;26.92;11.07;;;10.60;99.90;;;;;;4983981;28;20491;-74
2024/02/22 06:47:34;;;;;;;27.90;11.27;;;10.60;99.90;;;;;;4981395;28;20542;-74
2024/02/22 06:49:59;;;;;;;29.70;11.73;;;10.60;99.90;;;;;;5000137;28;20033;-74
2024/02/22 06:52:25;;;;;;;25.02;10.15;;;10.60;99.90;;;;;;4995316;28;20022;-74
2024/02/22 06:54:51;;;;;;;21.05;10.30;;;10.50;99.90;;;;;;4982781;28;20777;-74
2024/02/22 06:57:17;;;;;;;30.08;11.13;;;10.50;99.90;;;;;;4979575;28;20403;-74
2024/02/22 06:59:43;;;;;;;25.08;9.63;;;10.50;99.90;;;;;;4994866;28;20515;-74
2024/02/22 07:02:11;;;;;;;23.88;9.43;;;10.50;99.90;;;;;;5001679;28;20030;-74
2024/02/22 07:04:37;;;;;;;20.17;8.48;;;10.50;99.90;;;;;;4983173;28;20034;-74
2024/02/22 07:07:03;;;;;;;21.48;8.13;;;10.50;99.90;;;;;;4958012;28;20062;-74
2024/02/22 07:09:28;;;;;;;21.02;7.85;;;10.50;99.90;;;;;;4994959;28;20547;-74
2024/02/22 07:11:57;;;;;;;15.18;7.15;;;10.50;99.90;;;;;;4989111;28;20077;-74
2024/02/22 07:14:23;;;;;;;19.80;8.02;;;10.50;99.90;;;;;;4958568;28;20060;-74
2024/02/22 07:16:50;;;;;;;21.88;8.57;;;10.40;99.90;;;;;;4984567;28;20070;-74
2024/02/22 07:19:16;;;;;;;21.27;7.90;;;10.40;99.90;;;;;;4970052;28;20113;-74
2024/02/22 07:21:42;;;;;;;18.05;7.63;;;10.40;99.90;;;;;;4985882;28;20036;-74
2024/02/22 07:24:08;;;;;;;19.70;7.78;;;10.40;99.90;;;;;;4971482;28;20131;-73
2024/02/22 07:26:34;;;;;;;22.38;8.20;;;10.40;99.90;;;;;;4986270;28;20030;-74
2024/02/22 07:29:00;;;;;;;17.88;7.85;;;10.40;99.90;;;;;;4986683;28;20542;-74
2024/02/22 07:31:25;;;;;;;17.90;9.75;;;10.40;99.90;;;;;;4969068;28;20154;-74
2024/02/22 07:33:53;;;;;;;22.50;10.45;;;10.40;99.90;;;;;;4978516;28;20065;-74
2024/02/22 07:36:19;;;;;;;19.63;9.70;;;10.40;99.90;;;;;;4985937;28;20014;-74
2024/02/22 07:38:46;;;;;;;20.98;10.57;;;10.40;99.90;;;;;;4986945;28;20283;-73
2024/02/22 07:41:15;;;;;;;16.70;9.38;;;10.40;99.90;;;;;;4974385;28;20026;-74
2024/02/22 07:43:50;;;;;;;20.35;10.65;;;10.40;99.90;;;;;;4986919;28;20030;-74
2024/02/22 07:46:16;;;;;;;19.52;11.20;;;10.50;99.90;;;;;;4985642;28;20031;-73
2024/02/22 07:48:42;;;;;;;21.50;10.93;;;10.40;99.90;;;;;;4990197;28;20026;-73
2024/02/22 07:51:09;;;;;;;18.70;9.93;;;10.50;99.90;;;;;;4961191;28;20495;-73
2024/02/22 07:53:36;;;;;;;19.98;11.60;;;10.40;99.90;;;;;;4998222;28;20037;-75
2024/02/22 07:56:07;;;;;;;18.80;11.35;;;10.50;99.90;;;;;;4993877;28;20041;-73
2024/02/22 07:58:49;;;;;;;19.63;11.57;;;10.50;99.90;;;;;;4990339;28;20023;-73
2024/02/22 08:01:15;;;;;;;19.40;12.35;;;10.50;99.90;;;;;;4993380;28;20120;-73
2024/02/22 08:03:42;;;;;;;21.25;12.10;;;10.50;99.90;;;;;;4998426;28;20510;-73
2024/02/22 08:06:09;;;;;;;17.38;11.93;;;10.50;99.90;;;;;;4976358;28;20034;-73
2024/02/22 08:08:36;;;;;;;17.63;11.57;;;10.50;99.90;;;;;;4995228;28;20023;-73
2024/02/22 08:11:01;;;;;;;16.20;11.25;;;10.50;99.90;;;;;;4999156;28;20049;-76
2024/02/22 08:13:27;;;;;;;20.30;12.23;;;10.50;99.90;;;;;;4999200;28;20380;-72
2024/02/22 08:16:06;;;;;;;15.93;10.23;;;10.50;99.90;;;;;;5000673;28;20084;-73
2024/02/22 08:18:35;;;;;;;16.73;10.25;;;10.60;99.90;;;;;;4999002;28;20542;-73
2024/02/22 08:21:02;;;;;;;12.95;9.15;;;10.60;99.90;;;;;;4991596;28;20768;-73
2024/02/22 08:23:28;;;;;;;15.45;9.82;;;10.60;99.90;;;;;;4994945;28;20034;-73
2024/02/22 08:25:57;;;;;;;12.80;8.43;;;10.60;99.90;;;;;;4999444;28;20556;-73
2024/02/22 08:28:24;;;;;;;14.77;9.38;;;10.60;99.90;;;;;;4995638;28;20547;-73
2024/02/22 08:30:51;;;;;;;11.68;7.78;;;10.60;99.90;;;;;;4991129;28;20919;-73
2024/02/22 08:33:17;;;;;;;11.20;7.50;;;10.60;99.90;;;;;;4997776;28;20563;-76
2024/02/22 08:35:42;;;;;;;14.20;7.40;;;10.60;99.90;;;;;;4999616;28;20018;-73
2024/02/22 08:38:09;;;;;;;9.30;6.63;;;10.60;99.90;;;;;;4992177;28;20151;-73
2024/02/22 08:40:36;;;;;;;12.07;7.78;;;10.60;99.90;;;;;;4992274;28;20069;-74
2024/02/22 08:43:03;;;;;;;9.73;6.70;;;10.60;99.90;;;;;;4988814;28;20033;-74
2024/02/22 08:45:29;;;;;;;11.15;6.80;;;10.70;99.90;;;;;;4966558;28;20114;-74
2024/02/22 08:47:55;;;;;;;8.93;6.35;;;10.70;99.90;;;;;;4967050;28;20054;-74
2024/02/22 08:50:21;;;;;;;9.43;6.75;;;10.70;99.90;;;;;;4988648;28;20054;-74
2024/02/22 08:52:47;;;;;;;9.07;6.43;;;10.70;99.90;;;;;;5006747;28;20029;-74
2024/02/22 08:55:13;;;;;;;9.63;6.03;;;10.70;99.90;;;;;;4974179;28;20329;-75
2024/02/22 08:57:40;;;;;;;10.07;6.75;;;10.80;99.90;;;;;;5006537;28;20053;-74
2024/02/22 09:00:10;;;;;;;11.23;7.00;;;10.80;99.90;;;;;;4994085;28;20514;-74
2024/02/22 09:02:40;;;;;;;11.45;6.80;;;10.80;99.90;;;;;;4991541;28;20026;-74
2024/02/22 09:05:08;;;;;;;9.07;6.72;;;10.80;99.90;;;;;;4959898;28;20042;-75
2024/02/22 09:07:35;;;;;;;9.00;6.10;;;10.90;99.90;;;;;;5005085;28;20030;-74
2024/02/22 09:10:02;;;;;;;8.38;6.07;;;10.90;99.90;;;;;;4998400;28;20114;-74
2024/02/22 09:12:28;;;;;;;7.55;6.15;;;10.80;99.90;;;;;;4988330;28;20495;-74
2024/02/22 09:14:53;;;;;;;7.72;6.15;;;10.90;99.90;;;;;;4998753;28;20022;-74
2024/02/22 09:17:19;;;;;;;7.30;5.57;;;10.90;99.90;;;;;;4994517;28;20495;-74
2024/02/22 09:19:45;;;;;;;6.60;5.20;;;10.90;99.90;;;;;;4999575;28;20121;-74
2024/02/22 09:22:12;;;;;;;7.97;5.75;;;10.90;99.90;;;;;;4984632;28;20029;-74
2024/02/22 09:24:45;;;;;;;6.32;5.30;;;11.00;99.90;;;;;;4978652;28;20504;-74
2024/02/22 09:27:12;;;;;;;7.50;5.70;;;11.00;99.90;;;;;;4976039;28;20104;-74
2024/02/22 09:29:38;;;;;;;6.95;5.28;;;11.00;99.90;;;;;;4987191;28;20022;-74
2024/02/22 09:32:07;;;;;;;7.80;6.25;;;11.10;99.90;;;;;;4986572;28;20021;-74
2024/02/22 09:34:34;;;;;;;8.98;6.75;;;11.10;99.90;;;;;;4987169;28;20026;-74
2024/02/22 09:37:03;;;;;;;9.52;6.60;;;11.10;99.90;;;;;;4986533;28;20022;-74
2024/02/22 09:39:30;;;;;;;8.70;6.60;;;11.10;99.90;;;;;;4990764;28;20022;-73
2024/02/22 09:41:56;;;;;;;8.57;6.75;;;11.20;99.90;;;;;;4982786;28;20037;-74
2024/02/22 09:44:22;;;;;;;6.47;5.80;;;11.20;99.90;;;;;;4993355;28;20134;-74
2024/02/22 09:46:49;;;;;;;7.15;5.15;;;11.20;99.90;;;;;;4973940;28;20108;-74
2024/02/22 09:49:15;;;;;;;5.80;4.75;;;11.20;99.90;;;;;;4981134;28;20022;-74
2024/02/22 09:51:42;;;;;;;5.55;4.35;;;11.20;99.90;;;;;;4984371;28;20030;-74
2024/02/22 09:54:09;;;;;;;4.85;3.88;;;11.20;99.90;;;;;;4978551;28;20434;-74
2024/02/22 09:56:35;;;;;;;5.10;3.95;;;11.20;99.90;;;;;;4993787;28;20516;-74
2024/02/22 09:59:03;;;;;;;4.20;3.00;;;11.20;99.90;;;;;;4981254;28;20441;-74
2024/02/22 10:01:29;;;;;;;4.70;3.78;;;11.20;99.90;;;;;;4979176;28;20029;-74
2024/02/22 10:03:55;;;;;;;5.38;3.63;;;11.30;99.90;;;;;;4969037;28;20021;-73
2024/02/22 10:06:24;;;;;;;4.57;3.30;;;11.30;99.90;;;;;;4987737;28;20037;-74
2024/02/22 10:08:49;;;;;;;4.85;3.35;;;11.30;99.90;;;;;;4991959;28;20051;-74
2024/02/22 10:11:19;;;;;;;3.65;3.10;;;11.40;99.90;;;;;;4976175;28;20626;-74
2024/02/22 10:13:45;;;;;;;4.43;3.67;;;11.40;99.90;;;;;;4981398;28;20114;-73
2024/02/22 10:16:11;;;;;;;4.40;3.47;;;11.40;99.90;;;;;;4981867;28;20172;-73
2024/02/22 10:18:37;;;;;;;4.15;3.35;;;11.40;99.90;;;;;;4988194;28;20034;-74
2024/02/22 10:21:17;;;;;;;4.47;3.75;;;11.40;99.90;;;;;;4986621;28;20021;-75
2024/02/22 10:23:52;;;;;;;3.80;2.92;;;11.40;99.90;;;;;;4987824;28;20084;-74
2024/02/22 10:26:18;;;;;;;4.60;4.10;;;11.40;99.90;;;;;;4975133;28;20053;-74
2024/02/22 10:28:56;;;;;;;3.55;3.05;;;11.40;99.90;;;;;;4980961;28;20475;-74
2024/02/22 10:31:25;;;;;;;3.45;2.92;;;11.40;99.90;;;;;;4977273;28;20033;-74
2024/02/22 10:33:55;;;;;;;4.53;3.50;;;11.40;99.90;;;;;;4987939;28;20023;-74
2024/02/22 10:36:21;;;;;;;3.55;3.20;;;11.40;99.90;;;;;;4987941;28;20025;-74
2024/02/22 10:38:48;;;;;;;3.20;2.90;;;11.30;99.90;;;;;;4988661;28;20076;-74
2024/02/22 10:41:14;;;;;;;3.53;3.17;;;11.30;99.90;;;;;;4998722;28;20037;-74
2024/02/22 10:43:43;;;;;;;3.88;3.17;;;11.30;99.90;;;;;;4992336;28;20018;-74
2024/02/22 10:46:11;;;;;;;3.72;3.28;;;11.30;99.90;;;;;;4984877;28;20037;-74
2024/02/22 10:48:43;;;;;;;3.78;3.20;;;11.30;99.90;;;;;;5001704;28;20045;-74
2024/02/22 10:51:10;;;;;;;3.85;2.80;;;11.30;99.90;;;;;;5003270;28;20032;-74
2024/02/22 10:53:39;;;;;;;3.90;2.90;;;11.40;99.90;;;;;;4978830;28;20371;-74
2024/02/22 10:56:06;;;;;;;3.45;2.65;;;11.40;99.90;;;;;;4996728;28;20060;-74
2024/02/22 10:58:35;;;;;;;4.07;3.13;;;11.40;99.90;;;;;;4973780;28;20034;-74
2024/02/22 11:01:04;;;;;;;5.65;3.30;;;11.40;99.90;;;;;;4995038;28;20472;-75
2024/02/22 11:03:31;;;;;;;4.05;3.40;;;11.40;99.90;;;;;;4990244;28;20037;-74
2024/02/22 11:06:03;;;;;;;4.40;3.65;;;11.40;99.90;;;;;;4984839;28;20026;-76
2024/02/22 11:08:29;;;;;;;4.32;3.30;;;11.40;99.90;;;;;;4983361;28;20026;-76
2024/02/22 11:11:10;;;;;;;4.45;3.50;;;11.50;99.90;;;;;;4988180;28;20456;-76
2024/02/22 11:13:39;;;;;;;5.03;3.00;;;11.50;99.90;;;;;;4971880;28;20081;-75
2024/02/22 11:16:15;;;;;;;4.32;3.22;;;11.60;99.90;;;;;;4983277;28;20048;-76
2024/02/22 11:18:41;;;;;;;4.28;3.17;;;11.50;99.90;;;;;;4976506;28;20022;-74
2024/02/22 11:21:13;;;;;;;4.93;3.40;;;11.60;99.90;;;;;;4998180;28;20030;-76
2024/02/22 11:23:39;;;;;;;4.82;3.25;;;11.60;99.90;;;;;;4991650;28;20023;-75
2024/02/22 11:26:05;;;;;;;4.28;3.40;;;11.60;99.90;;;;;;4993230;28;20025;-76
2024/02/22 11:28:31;;;;;;;3.35;2.92;;;11.60;99.90;;;;;;4989291;28;20096;-76
2024/02/22 11:31:09;;;;;;;9.13;3.08;;;11.70;99.90;;;;;;4988152;28;20368;-75
2024/02/22 11:33:35;;;;;;;4.03;2.38;;;11.70;99.90;;;;;;4987209;28;20034;-76
2024/02/22 11:36:01;;;;;;;2.88;2.47;;;11.70;99.90;;;;;;5003291;28;20400;-75
2024/02/22 11:38:27;;;;;;;3.08;2.22;;;11.70;99.90;;;;;;5001421;28;20022;-77
2024/02/22 11:40:52;;;;;;;5.35;2.60;;;11.70;99.90;;;;;;4996834;28;20175;-77
2024/02/22 11:43:27;;;;;;;2.90;2.30;;;11.70;99.90;;;;;;4975651;28;20037;-76
2024/02/22 11:46:00;;;;;;;2.90;2.47;;;11.70;99.90;;;;;;5001883;28;20033;-77
2024/02/22 11:48:27;;;;;;;2.63;2.30;;;11.80;99.90;;;;;;4992482;28;20435;-76
2024/02/22 11:50:52;;;;;;;2.38;2.17;;;11.80;99.90;;;;;;4996191;28;20026;-74
2024/02/22 11:53:18;;;;;;;3.65;2.13;;;11.80;99.90;;;;;;5000444;28;20149;-74
2024/02/22 11:55:49;;;;;;;2.55;2.00;;;11.80;99.90;;;;;;4986617;28;20030;-74
2024/02/22 11:58:15;;;;;;;3.28;1.90;;;11.80;99.90;;;;;;4974286;28;20035;-75
2024/02/22 12:00:42;;;;;;;3.47;1.90;;;11.80;99.90;;;;;;4985111;28;20564;-74
2024/02/22 12:03:09;;;;;;;2.33;2.10;;;11.90;99.90;;;;;;4989046;28;20034;-74
2024/02/22 12:05:35;;;;;;;2.13;1.90;;;11.90;99.90;;;;;;5004076;28;20025;-73
2024/02/22 12:08:01;;;;;;;3.10;2.15;;;11.90;99.90;;;;;;5004173;28;20093;-74
2024/02/22 12:10:26;;;;;;;3.78;2.35;;;11.80;99.90;;;;;;4987103;28;20150;-73
2024/02/22 12:12:52;;;;;;;3.47;2.78;;;11.80;99.90;;;;;;4971871;28;20022;-74
2024/02/22 12:15:19;;;;;;;5.07;2.90;;;11.80;99.90;;;;;;4994686;28;20053;-72
2024/02/22 12:17:45;;;;;;;4.78;3.42;;;11.80;99.90;;;;;;4998409;28;20447;-74
2024/02/22 12:20:13;;;;;;;4.85;3.30;;;11.80;99.90;;;;;;4973888;28;20034;-74
2024/02/22 12:22:38;;;;;;;6.53;3.80;;;11.80;99.90;;;;;;4994149;28;20037;-74
2024/02/22 12:25:07;;;;;;;3.55;3.13;;;11.90;99.90;;;;;;4990751;28;20050;-74
2024/02/22 12:27:32;;;;;;;5.97;3.80;;;11.90;99.90;;;;;;4993526;28;20018;-74
2024/02/22 12:30:01;;;;;;;4.30;3.30;;;11.90;99.90;;;;;;4990365;28;20030;-74
2024/02/22 12:32:27;;;;;;;4.97;3.97;;;11.90;99.90;;;;;;4988390;28;20037;-73
2024/02/22 12:34:54;;;;;;;6.00;3.50;;;11.90;99.90;;;;;;5005350;28;20022;-74
2024/02/22 12:37:20;;;;;;;5.45;3.10;;;11.90;99.90;;;;;;4987626;28;20512;-74